Time;durP1;ratioP1;P1;durP2;ratioP2;P2;SDS_P1;SDS_P2;PMS_P1;PMS_P2;Temp;Humidity;BMP_temperature;BMP_pressure;BME280_temperature;BME280_humidity;BME280_pressure;Samples;Min_cycle;Max_cycle;Signal;HPM_P1;HPM_P2
2021/08/31 00:00:14;;;;;;;10.03;8.43;;;;;;;14.23;100.00;155015.78;5015945;28;20439;-81
2021/08/31 00:02:50;;;;;;;11.30;10.10;;;;;;;14.24;100.00;155018.38;5016075;28;20867;-81
2021/08/31 00:05:25;;;;;;;11.30;9.40;;;;;;;14.26;100.00;155023.56;5033017;28;20411;-81
2021/08/31 00:08:01;;;;;;;11.83;10.57;;;;;;;14.23;100.00;155015.78;5000428;28;20450;-81
2021/08/31 00:10:38;;;;;;;11.60;10.50;;;;;;;14.22;100.00;155013.16;5016847;28;21083;-81
2021/08/31 00:13:13;;;;;;;10.93;9.80;;;;;;;14.24;100.00;155018.38;5015924;28;20862;-81
2021/08/31 00:15:49;;;;;;;10.17;8.90;;;;;;;14.21;100.00;155010.59;5000471;28;20517;-81
2021/08/31 00:18:24;;;;;;;11.37;9.50;;;;;;;14.23;100.00;155015.78;5015493;28;20825;-81
2021/08/31 00:21:00;;;;;;;10.53;9.43;;;;;;;14.22;100.00;155011.84;5033195;28;20415;-81
2021/08/31 00:23:35;;;;;;;9.40;8.40;;;;;;;14.21;100.00;155009.28;5032126;28;20545;-81
2021/08/31 00:26:12;;;;;;;10.07;9.07;;;;;;;14.22;100.00;155013.16;5031807;28;20469;-80
2021/08/31 00:28:48;;;;;;;10.47;9.27;;;;;;;14.22;100.00;155013.16;5032226;28;20831;-81
2021/08/31 00:31:24;;;;;;;10.40;8.57;;;;;;;14.21;100.00;155010.59;5031993;28;20438;-81
2021/08/31 00:33:59;;;;;;;9.70;8.70;;;;;;;14.19;100.00;155005.34;5033680;28;20540;-81
2021/08/31 00:36:34;;;;;;;13.87;9.70;;;;;;;14.20;100.00;155006.66;5015321;28;20947;-81
2021/08/31 00:39:10;;;;;;;9.97;8.53;;;;;;;14.21;100.00;155010.59;5032263;28;20436;-81
2021/08/31 00:41:47;;;;;;;9.77;8.77;;;;;;;14.19;100.00;155005.34;5017340;28;20443;-80
2021/08/31 00:44:24;;;;;;;10.10;8.53;;;;;;;14.21;100.00;155010.59;5019455;28;20466;-81
2021/08/31 00:47:00;;;;;;;12.73;10.87;;;;;;;14.24;100.00;155018.38;5035607;28;20450;-81
2021/08/31 00:49:36;;;;;;;13.23;11.10;;;;;;;14.23;100.00;155015.78;5019413;28;20942;-81
2021/08/31 00:52:12;;;;;;;13.13;10.30;;;;;;;14.26;100.00;155022.25;5037138;28;20438;-81
2021/08/31 00:54:48;;;;;;;15.20;12.07;;;;;;;14.23;100.00;155015.78;5018987;28;20473;-81
2021/08/31 00:57:25;;;;;;;12.87;11.30;;;;;;;14.22;100.00;155011.84;5018480;28;20473;-81
2021/08/31 01:00:00;;;;;;;11.40;10.10;;;;;;;14.20;100.00;155007.97;5036973;28;20500;-81
2021/08/31 01:02:36;;;;;;;12.20;10.90;;;;;;;14.21;100.00;155010.59;5018947;28;20552;-81
2021/08/31 01:05:12;;;;;;;11.40;10.10;;;;;;;14.21;100.00;155010.59;5019236;28;20439;-81
2021/08/31 01:07:47;;;;;;;12.70;10.80;;;;;;;14.19;100.00;155004.09;5003747;28;20859;-82
2021/08/31 01:10:22;;;;;;;15.03;11.87;;;;;;;14.21;100.00;155009.28;5035589;28;20443;-81
2021/08/31 01:12:59;;;;;;;13.07;10.90;;;;;;;14.21;100.00;155009.28;5020364;28;20442;-81
2021/08/31 01:15:35;;;;;;;15.23;11.90;;;;;;;14.20;100.00;155007.97;5018677;28;20472;-81
2021/08/31 01:18:20;;;;;;;14.83;12.40;;;;;;;14.19;100.00;155005.34;5036620;28;20437;-81
2021/08/31 01:20:58;;;;;;;16.50;12.77;;;;;;;14.17;100.00;155000.19;5036883;28;20494;-81
2021/08/31 01:23:33;;;;;;;17.80;13.17;;;;;;;14.21;100.00;155009.28;5035313;28;20443;-81
2021/08/31 01:26:10;;;;;;;16.70;13.70;;;;;;;14.18;100.00;155001.50;5036260;28;20819;-81
2021/08/31 01:28:46;;;;;;;16.87;13.40;;;;;;;14.16;100.00;154996.31;5018953;28;20448;-81
2021/08/31 01:31:21;;;;;;;16.57;13.60;;;;;;;14.16;100.00;154997.59;5018813;28;20529;-81
2021/08/31 01:33:57;;;;;;;18.77;14.17;;;;;;;14.14;100.00;154991.13;5036867;28;20472;-81
2021/08/31 01:36:32;;;;;;;17.20;14.10;;;;;;;14.12;100.00;154987.19;5018372;28;20446;-81
2021/08/31 01:39:08;;;;;;;16.33;13.90;;;;;;;14.13;100.00;154989.81;5018546;28;20441;-81
2021/08/31 01:41:45;;;;;;;15.30;13.23;;;;;;;14.14;100.00;154992.38;5018857;28;20813;-81
2021/08/31 01:44:20;;;;;;;14.27;12.03;;;;;;;14.11;100.00;154984.59;5036402;28;20419;-81
2021/08/31 01:46:56;;;;;;;14.97;12.73;;;;;;;14.13;100.00;154989.81;5017799;28;20474;-82
2021/08/31 01:49:31;;;;;;;16.50;12.00;;;;;;;14.09;100.00;154979.41;5018310;28;20935;-81
2021/08/31 01:52:07;;;;;;;15.90;12.50;;;;;;;14.11;100.00;154984.59;5017812;28;20536;-81
2021/08/31 01:54:43;;;;;;;18.87;13.97;;;;;;;14.15;100.00;154995.00;5035588;28;20968;-81
2021/08/31 01:57:20;;;;;;;29.03;15.80;;;;;;;14.13;100.00;154989.81;5017604;28;20467;-81
2021/08/31 01:59:55;;;;;;;18.40;14.27;;;;;;;14.13;100.00;154989.81;5018058;28;20445;-81
2021/08/31 02:02:30;;;;;;;17.90;14.70;;;;;;;14.14;100.00;154992.38;5018219;28;20451;-81
2021/08/31 02:05:07;;;;;;;17.27;14.40;;;;;;;14.13;100.00;154989.81;5017899;28;20431;-81
2021/08/31 02:07:43;;;;;;;18.40;15.10;;;;;;;14.06;100.00;154971.59;5017927;28;20560;-81
2021/08/31 02:10:19;;;;;;;17.93;14.80;;;;;;;14.07;100.00;154974.22;5017965;28;20439;-81
2021/08/31 02:12:55;;;;;;;16.67;13.43;;;;;;;14.08;100.00;154975.53;5018244;28;20770;-81
2021/08/31 02:15:31;;;;;;;16.60;13.73;;;;;;;14.04;100.00;154966.41;5034404;28;20870;-81
2021/08/31 02:18:06;;;;;;;16.90;13.80;;;;;;;14.06;100.00;154971.59;5017315;28;20451;-81
2021/08/31 02:20:42;;;;;;;19.17;13.50;;;;;;;14.05;100.00;154969.03;5035424;28;20422;-81
2021/08/31 02:23:17;;;;;;;16.73;12.90;;;;;;;14.03;100.00;154965.13;5017916;28;20553;-81
2021/08/31 02:25:53;;;;;;;15.30;12.77;;;;;;;14.02;100.00;154961.25;5017603;28;20469;-81
2021/08/31 02:28:30;;;;;;;15.13;12.30;;;;;;;14.01;100.00;154958.63;5017830;28;20552;-81
2021/08/31 02:31:05;;;;;;;17.00;13.33;;;;;;;13.99;100.00;154953.44;5017654;28;20798;-81
2021/08/31 02:33:41;;;;;;;17.13;13.50;;;;;;;13.96;100.00;154946.94;5017974;28;20447;-81
2021/08/31 02:36:16;;;;;;;15.43;12.50;;;;;;;14.00;100.00;154956.06;5035214;28;20434;-81
2021/08/31 02:38:52;;;;;;;15.63;12.60;;;;;;;13.96;100.00;154945.66;5017532;28;20453;-81
2021/08/31 02:41:27;;;;;;;16.57;12.50;;;;;;;13.96;100.00;154945.66;5017299;28;20444;-81
2021/08/31 02:44:05;;;;;;;14.63;12.53;;;;;;;13.95;100.00;154944.34;5035212;28;20413;-81
2021/08/31 02:46:41;;;;;;;14.50;12.33;;;;;;;13.96;100.00;154945.66;5016790;28;20442;-81
2021/08/31 02:49:16;;;;;;;15.50;11.60;;;;;;;13.95;100.00;154943.09;5017195;28;20542;-81
2021/08/31 02:51:52;;;;;;;14.50;12.47;;;;;;;13.91;100.00;154932.66;5034920;28;20424;-81
2021/08/31 02:54:27;;;;;;;15.73;12.40;;;;;;;13.90;100.00;154930.06;5016930;28;20476;-81
2021/08/31 02:57:03;;;;;;;15.67;13.17;;;;;;;13.89;100.00;154927.50;5032771;28;20445;-81
2021/08/31 02:59:40;;;;;;;15.23;12.77;;;;;;;13.88;100.00;154926.19;5016824;28;20829;-81
2021/08/31 03:02:16;;;;;;;15.43;13.70;;;;;;;13.86;100.00;154919.69;5017233;28;20835;-82
2021/08/31 03:04:52;;;;;;;15.57;13.00;;;;;;;13.85;100.00;154918.38;5016749;28;20435;-81
2021/08/31 03:07:28;;;;;;;15.47;12.63;;;;;;;13.87;100.00;154923.56;5016722;28;20925;-81
2021/08/31 03:10:04;;;;;;;16.23;12.43;;;;;;;13.86;100.00;154919.69;5016749;28;20517;-82
2021/08/31 03:12:39;;;;;;;17.80;13.87;;;;;;;13.85;100.00;154917.06;5001690;28;20449;-81
2021/08/31 03:15:16;;;;;;;15.67;13.87;;;;;;;13.87;100.00;154922.31;5034347;28;20450;-81
2021/08/31 03:17:52;;;;;;;16.03;14.07;;;;;;;13.89;100.00;154927.50;5033012;28;20453;-81
2021/08/31 03:20:28;;;;;;;15.80;12.77;;;;;;;13.94;100.00;154941.78;5016648;28;20448;-81
2021/08/31 03:23:04;;;;;;;16.97;14.23;;;;;;;13.89;100.00;154928.81;5033377;28;20457;-81
2021/08/31 03:25:39;;;;;;;18.90;13.60;;;;;;;13.87;100.00;154923.56;5016497;28;20440;-81
2021/08/31 03:28:16;;;;;;;17.73;13.13;;;;;;;13.91;100.00;154932.66;5034181;28;20776;-82
2021/08/31 03:30:53;;;;;;;16.90;13.40;;;;;;;13.89;100.00;154927.50;5016390;28;20803;-81
2021/08/31 03:33:28;;;;;;;17.57;12.80;;;;;;;13.90;100.00;154930.06;5034629;28;20532;-82
2021/08/31 03:36:06;;;;;;;16.07;12.23;;;;;;;13.90;100.00;154930.06;5033847;28;20453;-81
2021/08/31 03:38:42;;;;;;;15.43;12.30;;;;;;;13.96;100.00;154945.66;5016561;28;20453;-81
2021/08/31 03:41:17;;;;;;;19.40;14.23;;;;;;;13.94;100.00;154941.78;5034038;28;20423;-81
2021/08/31 03:43:53;;;;;;;16.70;13.10;;;;;;;13.92;100.00;154935.28;5034622;28;20814;-81
2021/08/31 03:46:31;;;;;;;14.13;11.40;;;;;;;13.92;100.00;154935.28;5015981;28;20451;-81
2021/08/31 03:49:07;;;;;;;15.17;12.43;;;;;;;13.92;100.00;154935.28;5033911;28;20418;-81
2021/08/31 03:51:42;;;;;;;14.93;13.10;;;;;;;13.91;100.00;154932.66;5033846;28;20411;-81
2021/08/31 03:54:17;;;;;;;15.70;12.63;;;;;;;13.91;100.00;154932.66;5016156;28;20491;-81
2021/08/31 03:56:53;;;;;;;18.27;13.00;;;;;;;13.91;100.00;154933.97;5015329;28;20477;-81
2021/08/31 03:59:29;;;;;;;14.97;12.50;;;;;;;13.89;100.00;154928.81;5033307;28;20493;-81
2021/08/31 04:02:06;;;;;;;13.67;12.20;;;;;;;13.91;100.00;154932.66;5015678;28;20475;-81
2021/08/31 04:04:41;;;;;;;13.60;12.10;;;;;;;13.87;100.00;154923.56;5032381;28;20827;-81
2021/08/31 04:07:17;;;;;;;15.20;12.70;;;;;;;13.86;100.00;154919.69;5033345;28;20439;-81
2021/08/31 04:09:54;;;;;;;16.30;14.00;;;;;;;13.88;100.00;154924.88;5033508;28;20417;-81
2021/08/31 04:12:29;;;;;;;14.53;12.97;;;;;;;13.88;100.00;154926.19;5015824;28;20450;-81
2021/08/31 04:15:06;;;;;;;16.90;13.60;;;;;;;13.88;100.00;154924.88;5033507;28;20940;-81
2021/08/31 04:17:43;;;;;;;18.67;14.90;;;;;;;13.87;100.00;154923.56;5015031;28;20496;-81
2021/08/31 04:20:18;;;;;;;15.53;11.90;;;;;;;13.86;100.00;154919.69;5017020;28;20443;-81
2021/08/31 04:22:54;;;;;;;16.93;13.50;;;;;;;13.87;100.00;154922.31;5015926;28;20859;-81
2021/08/31 04:25:30;;;;;;;18.80;13.97;;;;;;;13.87;100.00;154922.31;5015627;28;20912;-81
2021/08/31 04:28:05;;;;;;;15.93;12.93;;;;;;;13.87;100.00;154922.31;5033539;28;20469;-82
2021/08/31 04:30:41;;;;;;;16.17;13.43;;;;;;;13.89;100.00;154928.81;5015611;28;20462;-81
2021/08/31 04:33:17;;;;;;;15.40;13.10;;;;;;;13.89;100.00;154927.50;5015805;28;20435;-81
2021/08/31 04:35:53;;;;;;;16.63;13.77;;;;;;;13.88;100.00;154924.88;5031671;28;20514;-81
2021/08/31 04:38:28;;;;;;;16.10;13.30;;;;;;;13.91;100.00;154932.66;5033433;28;20812;-81
2021/08/31 04:41:04;;;;;;;15.20;12.50;;;;;;;13.92;100.00;154935.28;5033337;28;20877;-81
2021/08/31 04:43:39;;;;;;;18.23;14.47;;;;;;;13.88;100.00;154924.88;5015569;28;20540;-81
2021/08/31 04:46:15;;;;;;;18.00;13.40;;;;;;;13.89;100.00;154927.50;5033040;28;20418;-81
2021/08/31 04:48:51;;;;;;;15.77;13.80;;;;;;;13.88;100.00;154926.19;5015159;28;20438;-81
2021/08/31 04:51:27;;;;;;;18.00;12.83;;;;;;;13.90;100.00;154930.06;5015373;28;20452;-82
2021/08/31 04:54:02;;;;;;;19.43;14.20;;;;;;;13.88;100.00;154926.19;5015104;28;20453;-81
2021/08/31 04:56:38;;;;;;;19.40;14.87;;;;;;;13.87;100.00;154922.31;5032538;28;20459;-81
2021/08/31 04:59:13;;;;;;;16.17;13.63;;;;;;;13.88;100.00;154926.19;5015231;28;20434;-81
2021/08/31 05:01:49;;;;;;;15.60;13.13;;;;;;;13.89;100.00;154927.50;5033477;28;20414;-81
2021/08/31 05:04:28;;;;;;;16.97;14.40;;;;;;;13.87;100.00;154922.31;5015142;28;20448;-81
2021/08/31 05:07:05;;;;;;;16.10;14.13;;;;;;;13.91;100.00;154932.66;5032728;28;20421;-81
2021/08/31 05:09:41;;;;;;;15.87;13.50;;;;;;;13.87;100.00;154922.31;5033158;28;20443;-81
2021/08/31 05:12:17;;;;;;;17.70;15.10;;;;;;;13.87;100.00;154922.31;5015309;28;20764;-81
2021/08/31 05:14:52;;;;;;;18.10;14.17;;;;;;;13.89;100.00;154928.81;5032792;28;20449;-81
2021/08/31 05:17:27;;;;;;;17.80;15.30;;;;;;;13.88;100.00;154924.88;5015060;28;20439;-82
2021/08/31 05:20:06;;;;;;;16.30;14.57;;;;;;;13.87;100.00;154922.31;5013948;28;20447;-82
2021/08/31 05:22:41;;;;;;;22.10;16.97;;;;;;;13.89;100.00;154927.50;5012347;28;20446;-81
2021/08/31 05:25:18;;;;;;;18.77;16.80;;;;;;;13.90;100.00;154930.06;4997607;28;20450;-83
2021/08/31 05:27:54;;;;;;;17.40;14.70;;;;;;;13.89;100.00;154927.50;5022491;28;20433;-83
2021/08/31 05:30:29;;;;;;;19.03;14.27;;;;;;;13.83;100.00;154913.22;5022432;28;20439;-81
2021/08/31 05:33:05;;;;;;;19.20;14.30;;;;;;;13.81;100.00;154906.72;5016000;28;20532;-81
2021/08/31 05:35:42;;;;;;;16.97;14.20;;;;;;;13.82;100.00;154910.59;5016962;28;20830;-81
2021/08/31 05:38:17;;;;;;;17.80;13.63;;;;;;;13.81;100.00;154906.72;4999110;28;20886;-81
2021/08/31 05:40:53;;;;;;;16.40;14.00;;;;;;;13.81;100.00;154908.03;4999587;28;20558;-81
2021/08/31 05:43:29;;;;;;;15.83;13.40;;;;;;;13.82;100.00;154909.34;4999227;28;20442;-81
2021/08/31 05:46:04;;;;;;;20.90;14.67;;;;;;;13.81;100.00;154906.72;5016653;28;20411;-81
2021/08/31 05:48:40;;;;;;;17.63;14.80;;;;;;;13.83;100.00;154911.91;5004144;28;20540;-81
2021/08/31 05:51:18;;;;;;;19.07;14.23;;;;;;;13.83;100.00;154913.22;5001722;28;20520;-81
2021/08/31 05:53:54;;;;;;;17.67;14.83;;;;;;;13.80;100.00;154904.09;5016983;28;20427;-81
2021/08/31 05:56:29;;;;;;;19.90;14.87;;;;;;;13.81;100.00;154906.72;4998107;28;20470;-81
2021/08/31 05:59:05;;;;;;;17.33;14.27;;;;;;;13.82;100.00;154909.34;4998695;28;20465;-81
2021/08/31 06:01:40;;;;;;;20.10;13.97;;;;;;;13.80;100.00;154904.09;4998236;28;20472;-81
2021/08/31 06:04:16;;;;;;;18.23;16.23;;;;;;;13.87;100.00;154922.31;4998359;28;20484;-81
2021/08/31 06:06:53;;;;;;;17.60;15.17;;;;;;;13.92;100.00;154935.28;5015684;28;20501;-81
2021/08/31 06:09:29;;;;;;;16.30;14.13;;;;;;;13.85;100.00;154918.38;5021773;28;20437;-81
2021/08/31 06:12:05;;;;;;;16.13;13.20;;;;;;;13.85;100.00;154917.06;5030190;28;20467;-81
2021/08/31 06:14:41;;;;;;;16.30;13.60;;;;;;;13.87;100.00;154923.56;5035441;28;20473;-81
2021/08/31 06:17:19;;;;;;;18.30;15.30;;;;;;;13.86;100.00;154919.69;5035014;28;20456;-82
2021/08/31 06:19:54;;;;;;;16.27;14.43;;;;;;;13.84;100.00;154914.50;5035201;28;20795;-81
2021/08/31 06:22:31;;;;;;;16.20;13.20;;;;;;;13.84;100.00;154914.50;5002342;28;20527;-83
2021/08/31 06:25:08;;;;;;;21.30;14.17;;;;;;;13.81;100.00;154908.03;5018793;28;20436;-82
2021/08/31 06:27:43;;;;;;;15.97;12.87;;;;;;;13.87;100.00;154922.31;5033644;28;20439;-83
2021/08/31 06:30:19;;;;;;;20.90;13.40;;;;;;;13.85;100.00;154918.38;5035409;28;20782;-83
2021/08/31 06:32:54;;;;;;;18.57;14.63;;;;;;;13.87;100.00;154922.31;5017028;28;20449;-82
2021/08/31 06:35:30;;;;;;;16.13;12.90;;;;;;;13.89;100.00;154928.81;5017002;28;20505;-83
2021/08/31 06:38:07;;;;;;;16.10;13.37;;;;;;;13.90;100.00;154930.06;5017080;28;20440;-82
2021/08/31 06:40:42;;;;;;;18.43;13.77;;;;;;;13.87;100.00;154922.31;5033050;28;20436;-82
2021/08/31 06:43:18;;;;;;;15.07;12.80;;;;;;;13.93;100.00;154937.84;5035008;28;20417;-83
2021/08/31 06:45:53;;;;;;;16.80;14.53;;;;;;;13.99;100.00;154953.44;5035039;28;20429;-83
2021/08/31 06:48:29;;;;;;;15.17;13.03;;;;;;;14.04;100.00;154966.41;5035102;28;20794;-82
2021/08/31 06:51:04;;;;;;;16.37;13.03;;;;;;;14.07;100.00;154974.22;5035049;28;20447;-82
2021/08/31 06:53:42;;;;;;;17.17;13.60;;;;;;;14.14;100.00;154991.13;5033560;28;20531;-83
2021/08/31 06:56:17;;;;;;;14.30;12.37;;;;;;;14.17;100.00;155000.19;5016773;28;20759;-82
2021/08/31 06:58:53;;;;;;;16.00;13.83;;;;;;;14.23;100.00;155015.78;5017996;28;20470;-82
2021/08/31 07:01:28;;;;;;;19.03;14.27;;;;;;;14.22;100.00;155013.16;5033710;28;20440;-82
2021/08/31 07:04:04;;;;;;;14.57;12.63;;;;;;;14.20;100.00;155006.66;5034378;28;20441;-82
2021/08/31 07:06:40;;;;;;;17.13;13.80;;;;;;;14.18;100.00;155002.78;5016685;28;20438;-82
2021/08/31 07:09:17;;;;;;;16.77;12.80;;;;;;;14.24;100.00;155017.09;5017066;28;20812;-82
2021/08/31 07:11:54;;;;;;;15.43;13.80;;;;;;;14.22;100.00;155011.84;5016455;28;20506;-82
2021/08/31 07:14:30;;;;;;;15.53;13.37;;;;;;;14.14;100.00;154991.13;5016472;28;20444;-82
2021/08/31 07:17:06;;;;;;;16.03;12.20;;;;;;;14.12;100.00;154987.19;5033878;28;20889;-83
2021/08/31 07:19:41;;;;;;;15.60;12.10;;;;;;;14.15;100.00;154995.00;5032396;28;20476;-82
2021/08/31 07:22:17;;;;;;;15.43;12.50;;;;;;;14.20;100.00;155007.97;5016512;28;20856;-82
2021/08/31 07:24:54;;;;;;;15.40;13.07;;;;;;;14.27;100.00;155026.13;5016336;28;20881;-82
2021/08/31 07:27:30;;;;;;;16.87;13.50;;;;;;;14.33;100.00;155041.78;5033395;28;20447;-75
2021/08/31 07:30:06;;;;;;;13.23;11.50;;;;;;;14.30;100.00;155033.94;5014865;28;20973;-74
2021/08/31 07:32:42;;;;;;;13.90;12.50;;;;;;;14.29;100.00;155031.38;5031865;28;20438;-75
2021/08/31 07:35:17;;;;;;;14.83;13.23;;;;;;;14.32;100.00;155037.91;5033181;28;20435;-75
2021/08/31 07:37:53;;;;;;;15.17;13.57;;;;;;;14.37;100.00;155052.19;5015080;28;20477;-74
2021/08/31 07:40:30;;;;;;;15.93;12.20;;;;;;;14.38;100.00;155053.47;5015062;28;20443;-75
2021/08/31 07:43:05;;;;;;;17.37;11.87;;;;;;;14.37;100.00;155052.19;5015499;28;20447;-75
2021/08/31 07:45:41;;;;;;;14.27;12.50;;;;;;;14.45;100.00;155072.97;5029791;28;20445;-75
2021/08/31 07:48:16;;;;;;;13.77;12.17;;;;;;;14.50;100.00;155084.66;5013461;28;20850;-75
2021/08/31 07:50:52;;;;;;;13.87;12.47;;;;;;;14.53;100.00;155093.72;5030640;28;20434;-75
2021/08/31 07:53:28;;;;;;;15.47;11.17;;;;;;;14.44;100.00;155070.38;5032629;28;20420;-75
2021/08/31 07:56:05;;;;;;;13.90;12.30;;;;;;;14.50;100.00;155085.97;5014452;28;20471;-75
2021/08/31 07:58:40;;;;;;;14.60;12.90;;;;;;;14.49;100.00;155083.34;4984274;28;21032;-74
2021/08/31 08:01:16;;;;;;;14.00;11.40;;;;;;;14.53;100.00;155093.72;5013165;28;20885;-75
2021/08/31 08:03:51;;;;;;;16.30;11.70;;;;;;;14.62;100.00;155115.81;4995361;28;20436;-75
2021/08/31 08:06:27;;;;;;;12.30;10.77;;;;;;;14.63;100.00;155119.72;5013001;28;20514;-75
2021/08/31 08:09:03;;;;;;;13.10;10.40;;;;;;;14.70;100.00;155135.28;5012992;28;20902;-75
2021/08/31 08:11:39;;;;;;;12.27;10.23;;;;;;;14.71;100.00;155137.91;4980299;28;20449;-75
2021/08/31 08:14:15;;;;;;;12.30;11.00;;;;;;;14.71;100.00;155137.91;4995192;28;20454;-75
2021/08/31 08:16:51;;;;;;;12.20;10.97;;;;;;;14.76;100.00;155150.88;4996113;28;20474;-75
2021/08/31 08:19:26;;;;;;;15.77;9.87;;;;;;;14.79;100.00;155160.00;5012865;28;20450;-72
2021/08/31 08:22:02;;;;;;;12.43;11.13;;;;;;;14.85;100.00;155175.53;4995169;28;20538;-75
2021/08/31 08:24:37;;;;;;;11.00;9.90;;;;;;;14.85;100.00;155174.28;5012791;28;20447;-75
2021/08/31 08:27:14;;;;;;;10.90;9.50;;;;;;;14.87;100.00;155179.47;4994756;28;20442;-75
2021/08/31 08:29:50;;;;;;;11.73;9.63;;;;;;;14.94;100.00;155197.66;4994962;28;20454;-75
2021/08/31 08:32:26;;;;;;;11.03;9.83;;;;;;;15.00;100.00;155213.25;5012622;28;20826;-75
2021/08/31 08:35:02;;;;;;;10.63;9.17;;;;;;;14.91;100.00;155191.16;5011515;28;20554;-75
2021/08/31 08:37:37;;;;;;;10.10;8.63;;;;;;;14.95;100.00;155201.56;5012324;28;20861;-75
2021/08/31 08:40:12;;;;;;;11.43;10.00;;;;;;;14.96;100.00;155202.81;4995010;28;20454;-75
2021/08/31 08:42:51;;;;;;;11.13;10.03;;;;;;;14.95;100.00;155200.25;4994936;28;20450;-75
2021/08/31 08:45:27;;;;;;;12.33;10.30;;;;;;;14.97;100.00;155206.75;4994563;28;20861;-75
2021/08/31 08:48:03;;;;;;;10.67;9.20;;;;;;;15.06;100.00;155228.84;5012351;28;20424;-75
2021/08/31 08:50:39;;;;;;;10.10;9.10;;;;;;;15.11;100.00;155243.16;4994949;28;20479;-75
2021/08/31 08:53:15;;;;;;;10.73;9.73;;;;;;;15.15;100.00;155252.22;5012403;28;20424;-75
2021/08/31 08:55:50;;;;;;;11.03;9.50;;;;;;;15.22;100.00;155270.44;4994591;28;20547;-75
2021/08/31 08:58:28;;;;;;;9.13;8.07;;;;;;;15.23;100.00;155273.00;5008348;28;20467;-75
2021/08/31 09:01:05;;;;;;;10.77;9.67;;;;;;;15.30;100.00;155291.22;5014505;28;20953;-75
2021/08/31 09:03:43;;;;;;;10.63;9.40;;;;;;;15.28;100.00;155286.00;5035668;28;20416;-75
2021/08/31 09:06:20;;;;;;;8.40;7.50;;;;;;;15.41;100.00;155319.78;5018087;28;20443;-75
2021/08/31 09:08:58;;;;;;;9.80;8.80;;;;;;;15.37;100.00;155309.41;5018201;28;20439;-75
2021/08/31 09:11:34;;;;;;;9.30;8.40;;;;;;;15.36;100.00;155306.78;5036049;28;20814;-75
2021/08/31 09:14:24;;;;;;;10.57;8.97;;;;;;;15.40;100.00;155317.22;5018047;28;20940;-75
2021/08/31 09:17:00;;;;;;;9.70;8.70;;;;;;;15.55;100.00;155356.25;5035523;28;20544;-75
2021/08/31 09:19:37;;;;;;;10.23;9.23;;;;;;;15.46;100.00;155332.81;5018369;28;20820;-75
2021/08/31 09:22:14;;;;;;;12.47;8.07;;;;;;;15.50;100.00;155341.94;5034631;28;20438;-75
2021/08/31 09:24:58;;;;;;;9.43;8.43;;;;;;;15.44;100.00;155327.59;5034443;28;20443;-75
2021/08/31 09:27:35;;;;;;;9.67;8.70;;;;;;;15.52;100.00;155348.44;5017587;28;20439;-75
2021/08/31 09:30:20;;;;;;;10.83;8.30;;;;;;;15.62;100.00;155373.16;5035907;28;20822;-75
2021/08/31 09:33:04;;;;;;;9.00;7.90;;;;;;;15.69;100.00;155391.34;5017856;28;20442;-75
2021/08/31 09:35:40;;;;;;;9.90;8.90;;;;;;;15.76;100.00;155410.84;5034278;28;20451;-75
2021/08/31 09:38:18;;;;;;;9.60;8.27;;;;;;;15.84;100.00;155430.31;5017800;28;20808;-75
2021/08/31 09:40:54;;;;;;;9.83;8.40;;;;;;;15.89;100.00;155442.00;5035711;28;20439;-75
2021/08/31 09:43:29;;;;;;;14.23;8.50;;;;;;;15.95;100.00;155457.63;5035221;28;20448;-75
2021/08/31 09:46:06;;;;;;;8.93;8.03;;;;;;;15.97;99.50;155462.81;5017401;28;20439;-75
2021/08/31 09:48:42;;;;;;;9.23;8.23;;;;;;;15.94;98.27;155455.06;5035732;28;20451;-75
2021/08/31 09:51:18;;;;;;;8.70;7.80;;;;;;;15.90;100.00;155445.94;5035189;28;20841;-75
2021/08/31 09:53:53;;;;;;;8.37;7.47;;;;;;;15.94;99.29;155455.06;5035121;28;20448;-75
2021/08/31 09:56:29;;;;;;;8.27;7.10;;;;;;;15.99;99.15;155468.06;5016930;28;20807;-75
2021/08/31 09:59:05;;;;;;;7.20;6.50;;;;;;;16.09;97.26;155494.06;5034882;28;20463;-75
2021/08/31 10:01:42;;;;;;;8.77;6.57;;;;;;;16.20;96.90;155523.94;5033717;28;20542;-75
2021/08/31 10:04:17;;;;;;;10.03;7.67;;;;;;;16.28;96.11;155543.47;5002189;28;20558;-75
2021/08/31 10:06:53;;;;;;;10.20;6.43;;;;;;;16.24;96.90;155533.06;5034679;28;20416;-75
2021/08/31 10:09:28;;;;;;;8.07;7.27;;;;;;;16.19;94.25;155520.03;5033642;28;20448;-75
2021/08/31 10:12:05;;;;;;;8.07;7.37;;;;;;;16.08;93.77;155492.75;5002014;28;20476;-75
2021/08/31 10:14:43;;;;;;;12.00;8.87;;;;;;;16.18;95.23;155518.75;5033668;28;20829;-75
2021/08/31 10:17:23;;;;;;;7.90;7.10;;;;;;;16.05;97.52;155483.63;5033135;28;20478;-75
2021/08/31 10:20:01;;;;;;;9.03;7.20;;;;;;;16.20;97.40;155522.66;5013997;28;20448;-75
2021/08/31 10:22:38;;;;;;;8.97;7.47;;;;;;;16.30;98.21;155549.97;5013959;28;20441;-75
2021/08/31 10:25:13;;;;;;;8.13;7.33;;;;;;;16.26;94.21;155538.25;5015355;28;20437;-75
2021/08/31 10:27:48;;;;;;;9.70;6.57;;;;;;;16.23;94.83;155530.47;4997368;28;20471;-75
2021/08/31 10:30:30;;;;;;;7.43;6.70;;;;;;;16.26;94.18;155539.56;5013675;28;20448;-75
2021/08/31 10:33:29;;;;;;;8.03;7.23;;;;;;;16.36;94.17;155564.28;5014628;28;20919;-75
2021/08/31 10:36:07;;;;;;;8.50;6.87;;;;;;;16.25;91.62;155536.97;5019771;28;20424;-75
2021/08/31 10:38:49;;;;;;;7.50;6.60;;;;;;;16.27;91.56;155542.16;5016973;28;20417;-75
2021/08/31 10:41:46;;;;;;;8.60;6.90;;;;;;;16.22;89.59;155527.84;4981583;28;20449;-75
2021/08/31 10:44:40;;;;;;;7.90;6.63;;;;;;;16.35;90.49;155561.66;4996837;28;20455;-75
2021/08/31 10:47:21;;;;;;;7.10;6.40;;;;;;;16.34;91.34;155560.34;4996619;28;20868;-75
2021/08/31 10:50:19;;;;;;;7.27;6.57;;;;;;;16.41;91.46;155578.56;5013132;28;20856;-75
2021/08/31 10:53:04;;;;;;;7.50;6.13;;;;;;;16.48;92.16;155595.47;5013877;28;20496;-75
2021/08/31 10:55:44;;;;;;;7.23;6.57;;;;;;;16.42;90.72;155579.88;5014447;28;20461;-75
2021/08/31 10:58:51;;;;;;;6.70;6.00;;;;;;;16.47;90.17;155592.88;5014172;28;20872;-75
2021/08/31 11:01:28;;;;;;;7.10;6.40;;;;;;;16.53;92.37;155608.53;5014092;28;20453;-75
2021/08/31 11:04:06;;;;;;;6.80;6.10;;;;;;;16.61;89.46;155628.03;5014079;28;20823;-75
2021/08/31 11:06:43;;;;;;;6.57;5.93;;;;;;;16.58;89.96;155620.22;5013761;28;20410;-75
2021/08/31 11:09:19;;;;;;;7.40;6.60;;;;;;;16.48;90.33;155595.47;5013905;28;20930;-75
2021/08/31 11:12:13;;;;;;;6.97;6.07;;;;;;;16.56;91.52;155616.34;5013905;28;20417;-75
2021/08/31 11:14:55;;;;;;;7.20;6.47;;;;;;;16.70;89.27;155652.78;5014013;28;20512;-75
2021/08/31 11:17:35;;;;;;;6.40;5.57;;;;;;;16.69;85.64;155650.16;5013840;28;20878;-75
2021/08/31 11:20:17;;;;;;;6.67;5.80;;;;;;;16.59;87.45;155624.16;5035292;28;20953;-75
2021/08/31 11:23:04;;;;;;;6.87;6.00;;;;;;;16.70;87.12;155651.47;5052876;28;20415;-75
2021/08/31 11:25:42;;;;;;;6.57;5.97;;;;;;;16.55;86.66;155613.72;5034512;28;20819;-74
2021/08/31 11:28:20;;;;;;;6.10;5.50;;;;;;;16.54;88.79;155611.16;5035392;28;20435;-75
2021/08/31 11:30:57;;;;;;;6.63;5.97;;;;;;;16.68;89.74;155647.53;5011240;28;20436;-75
2021/08/31 11:33:34;;;;;;;7.70;5.67;;;;;;;16.61;85.02;155629.34;5021153;28;20445;-75
2021/08/31 11:36:11;;;;;;;5.63;5.10;;;;;;;16.81;85.90;155680.09;5006507;28;20429;-75
2021/08/31 11:38:50;;;;;;;6.87;6.27;;;;;;;16.65;86.05;155639.78;5007121;28;20471;-75
2021/08/31 11:41:27;;;;;;;7.83;6.27;;;;;;;16.75;87.76;155664.47;5022538;28;20420;-75
2021/08/31 11:44:05;;;;;;;7.80;7.03;;;;;;;16.83;90.23;155686.59;5001393;28;20453;-75
2021/08/31 11:46:43;;;;;;;7.60;6.27;;;;;;;16.92;91.64;155710.00;5019778;28;20428;-75
2021/08/31 11:49:20;;;;;;;8.60;7.60;;;;;;;16.94;90.03;155713.94;5022601;28;20797;-75